createdAt,value
2018-08-12T00:08:54.948Z,99.99
2018-08-12T00:18:54.937Z,99.99
2018-08-12T00:28:54.909Z,99.99
2018-08-12T00:38:55.053Z,99.99
2018-08-12T00:48:54.997Z,99.99
2018-08-12T00:58:54.894Z,99.99
2018-08-12T01:08:55.903Z,99.99
2018-08-12T01:18:54.983Z,99.99
2018-08-12T01:28:54.916Z,99.99
2018-08-12T01:38:54.867Z,99.99
2018-08-12T01:48:54.977Z,99.99
2018-08-12T01:58:54.904Z,99.99
2018-08-12T02:08:54.880Z,99.99
2018-08-12T02:18:54.883Z,99.99
2018-08-12T02:28:54.900Z,99.99
2018-08-12T02:38:54.876Z,99.99
2018-08-12T02:48:54.902Z,99.99
2018-08-12T02:58:54.898Z,99.99
2018-08-12T03:08:54.859Z,99.99
2018-08-12T03:18:54.873Z,99.99
2018-08-12T03:28:54.891Z,99.99
2018-08-12T03:38:54.891Z,99.99
2018-08-12T03:48:54.939Z,99.99
2018-08-12T03:58:54.888Z,99.99
2018-08-12T04:08:54.884Z,99.99
2018-08-12T04:18:54.955Z,99.99
2018-08-12T04:28:54.883Z,99.99
2018-08-12T04:38:54.890Z,99.99
2018-08-12T04:48:56.901Z,99.99
2018-08-12T04:58:54.875Z,99.99
2018-08-12T05:08:54.896Z,99.99
2018-08-12T05:18:54.870Z,99.99
2018-08-12T05:28:54.877Z,99.99
2018-08-12T05:38:54.876Z,95.7
2018-08-12T05:48:54.847Z,91.19
2018-08-12T05:59:01.427Z,87.7
2018-08-12T06:08:55.973Z,84.67
2018-08-12T06:18:55.951Z,83.14
2018-08-12T06:28:54.860Z,80.3
2018-08-12T06:38:54.862Z,79.67
2018-08-12T06:48:55.928Z,78.52
2018-08-12T06:58:54.869Z,78.03
2018-08-12T07:08:55.888Z,75.87
2018-08-12T07:18:54.911Z,72.64
2018-08-12T07:28:56.900Z,52.7
2018-08-12T07:38:54.898Z,40.83
2018-08-12T07:48:54.988Z,39.14
2018-08-12T07:58:54.883Z,38.43
2018-08-12T08:08:54.898Z,41.27
2018-08-12T08:18:54.894Z,42.28
2018-08-12T08:28:54.898Z,42.91
2018-08-12T08:38:54.908Z,36.12
2018-08-12T08:48:54.959Z,35.06
2018-08-12T08:58:59.552Z,38.84
2018-08-12T09:08:55.021Z,44.34
2018-08-12T09:18:56.060Z,46.94
2018-08-12T09:28:54.930Z,50.16
2018-08-12T09:38:54.916Z,51.4
2018-08-12T09:48:54.977Z,49.63
2018-08-12T09:58:54.950Z,50.43
2018-08-12T10:08:54.938Z,49.68
2018-08-12T10:18:54.966Z,50.96
2018-08-12T10:28:54.943Z,51.62
2018-08-12T10:38:55.069Z,51.31
2018-08-12T10:48:54.950Z,51.43
2018-08-12T10:58:54.944Z,50.94
2018-08-12T11:08:56.001Z,51.26
2018-08-12T11:18:54.953Z,50.94
2018-08-12T11:28:54.981Z,49.61
2018-08-12T11:38:56.081Z,50.21
2018-08-12T11:48:55.238Z,48.75
2018-08-12T11:58:54.946Z,49.66
2018-08-12T12:08:54.973Z,48.49
2018-08-12T12:18:55.712Z,49.56
2018-08-12T12:28:54.966Z,48.68
2018-08-12T12:38:54.989Z,49.39
2018-08-12T12:48:56.089Z,48.61
2018-08-12T12:58:54.956Z,48.93
2018-08-12T13:08:54.983Z,48.13
2018-08-12T13:18:57.026Z,47.37
2018-08-12T13:28:55.118Z,47.88
2018-08-12T13:38:54.980Z,48.05
2018-08-12T13:48:55.221Z,47.96
2018-08-12T13:58:55.166Z,45.35
2018-08-12T14:08:55.118Z,46.32
2018-08-12T14:18:55.170Z,45.54
2018-08-12T14:28:55.005Z,45.59
2018-08-12T14:38:55.009Z,44.62
2018-08-12T14:48:55.045Z,44.79
2018-08-12T14:58:59.192Z,45.1
2018-08-12T15:08:55.003Z,44.3
2018-08-12T15:18:54.990Z,44.3
2018-08-12T15:28:56.130Z,43.74
2018-08-12T15:38:58.700Z,44.01
2018-08-12T15:48:55.042Z,44.71
2018-08-12T15:58:55.056Z,44.89
2018-08-12T16:08:55.027Z,44.79
2018-08-12T16:18:55.266Z,44.18
2018-08-12T16:28:55.047Z,44.18
2018-08-12T16:38:55.029Z,45.06
2018-08-12T16:48:55.024Z,44.84
2018-08-12T16:58:55.051Z,45.5
2018-08-12T17:08:55.017Z,45.01
2018-08-12T17:18:55.040Z,45.97
2018-08-12T17:28:55.045Z,45.87
2018-08-12T17:39:00.483Z,47.3
2018-08-12T17:48:55.058Z,47.69
2018-08-12T17:58:55.031Z,47.66
2018-08-12T18:08:55.142Z,47.74
2018-08-12T18:18:55.046Z,48.78
2018-08-12T18:28:55.082Z,50.57
2018-08-12T18:38:55.066Z,51.62
2018-08-12T18:48:55.072Z,54.17
2018-08-12T18:58:55.048Z,56.95
2018-08-12T19:08:55.081Z,59.6
2018-08-12T19:18:55.055Z,60.93
2018-08-12T19:28:55.130Z,63.02
2018-08-12T19:38:55.145Z,65.43
2018-08-12T19:48:55.071Z,67.23
2018-08-12T19:58:55.060Z,69.71
2018-08-12T20:08:55.097Z,71.79
2018-08-12T20:18:55.058Z,72.72
2018-08-12T20:28:55.066Z,75.86
2018-08-12T20:38:55.085Z,77.21
2018-08-12T20:48:55.085Z,78.9
2018-08-12T20:58:55.080Z,77.94
2018-08-12T21:08:55.082Z,78.58
2018-08-12T21:18:55.075Z,79.02
2018-08-12T21:28:55.069Z,82.86
2018-08-12T21:38:55.051Z,82.19
2018-08-12T21:48:55.064Z,81.38
2018-08-12T21:58:55.058Z,80.99
2018-08-12T22:08:55.085Z,78.75
2018-08-12T22:18:55.594Z,79.03
2018-08-12T22:28:55.185Z,81.01
2018-08-12T22:38:55.083Z,82.21
2018-08-12T22:48:56.191Z,84.23
2018-08-12T22:59:01.264Z,84.71
2018-08-12T23:09:01.060Z,85.38
2018-08-12T23:19:02.749Z,85.53
2018-08-12T23:29:02.336Z,81.45
2018-08-12T23:39:02.166Z,81.16
2018-08-12T23:48:57.204Z,78.28
2018-08-12T23:58:59.635Z,77.04
